sensor_id;sensor_type;location;lat;lon;timestamp;P1;durP1;ratioP1;P2;durP2;ratioP2
261;SDS011;114;48.260;10.988;2022-11-22T00:00:19;4.20;;;2.13;;
261;SDS011;114;48.260;10.988;2022-11-22T00:02:46;3.27;;;2.40;;
261;SDS011;114;48.260;10.988;2022-11-22T00:05:12;2.10;;;2.00;;
261;SDS011;114;48.260;10.988;2022-11-22T00:07:37;2.90;;;2.00;;
261;SDS011;114;48.260;10.988;2022-11-22T00:10:04;1.80;;;1.70;;
261;SDS011;114;48.260;10.988;2022-11-22T00:12:32;2.20;;;2.00;;
261;SDS011;114;48.260;10.988;2022-11-22T00:14:58;1.83;;;1.73;;
261;SDS011;114;48.260;10.988;2022-11-22T00:17:24;2.40;;;2.07;;
261;SDS011;114;48.260;10.988;2022-11-22T00:19:50;2.50;;;2.40;;
261;SDS011;114;48.260;10.988;2022-11-22T00:22:16;3.13;;;2.00;;
261;SDS011;114;48.260;10.988;2022-11-22T00:24:41;1.87;;;1.77;;
261;SDS011;114;48.260;10.988;2022-11-22T00:27:10;5.00;;;2.23;;
261;SDS011;114;48.260;10.988;2022-11-22T00:29:36;3.37;;;2.33;;
261;SDS011;114;48.260;10.988;2022-11-22T00:32:02;2.70;;;2.60;;
261;SDS011;114;48.260;10.988;2022-11-22T00:34:27;2.97;;;2.77;;
261;SDS011;114;48.260;10.988;2022-11-22T00:36:53;3.03;;;2.83;;
261;SDS011;114;48.260;10.988;2022-11-22T00:39:19;2.50;;;2.40;;
261;SDS011;114;48.260;10.988;2022-11-22T00:41:44;4.20;;;2.50;;
261;SDS011;114;48.260;10.988;2022-11-22T00:44:10;2.87;;;2.70;;
261;SDS011;114;48.260;10.988;2022-11-22T00:46:37;3.53;;;3.03;;
261;SDS011;114;48.260;10.988;2022-11-22T00:49:02;2.50;;;2.40;;
261;SDS011;114;48.260;10.988;2022-11-22T00:51:29;3.30;;;1.83;;
261;SDS011;114;48.260;10.988;2022-11-22T00:53:55;1.93;;;1.73;;
261;SDS011;114;48.260;10.988;2022-11-22T00:56:20;2.90;;;1.70;;
261;SDS011;114;48.260;10.988;2022-11-22T00:58:46;1.60;;;1.50;;
261;SDS011;114;48.260;10.988;2022-11-22T01:01:12;1.80;;;1.70;;
261;SDS011;114;48.260;10.988;2022-11-22T01:03:38;1.77;;;1.67;;
261;SDS011;114;48.260;10.988;2022-11-22T01:06:04;1.97;;;1.87;;
261;SDS011;114;48.260;10.988;2022-11-22T01:08:30;2.13;;;2.03;;
261;SDS011;114;48.260;10.988;2022-11-22T01:10:56;3.30;;;2.67;;
261;SDS011;114;48.260;10.988;2022-11-22T01:13:23;2.60;;;2.40;;
261;SDS011;114;48.260;10.988;2022-11-22T01:15:49;2.90;;;2.63;;
261;SDS011;114;48.260;10.988;2022-11-22T01:18:14;2.43;;;2.23;;
261;SDS011;114;48.260;10.988;2022-11-22T01:20:40;2.10;;;2.00;;
261;SDS011;114;48.260;10.988;2022-11-22T01:23:06;3.30;;;3.00;;
261;SDS011;114;48.260;10.988;2022-11-22T01:25:31;2.10;;;2.00;;
261;SDS011;114;48.260;10.988;2022-11-22T01:27:58;2.73;;;2.53;;
261;SDS011;114;48.260;10.988;2022-11-22T01:30:24;2.40;;;2.30;;
261;SDS011;114;48.260;10.988;2022-11-22T01:32:50;2.80;;;2.60;;
261;SDS011;114;48.260;10.988;2022-11-22T01:35:16;4.27;;;2.20;;
261;SDS011;114;48.260;10.988;2022-11-22T01:37:43;2.63;;;2.43;;
261;SDS011;114;48.260;10.988;2022-11-22T01:40:09;2.47;;;2.37;;
261;SDS011;114;48.260;10.988;2022-11-22T01:42:40;2.33;;;2.20;;
261;SDS011;114;48.260;10.988;2022-11-22T01:47:56;2.20;;;2.10;;
261;SDS011;114;48.260;10.988;2022-11-22T01:50:26;6.13;;;2.03;;
261;SDS011;114;48.260;10.988;2022-11-22T01:52:55;2.53;;;2.43;;
261;SDS011;114;48.260;10.988;2022-11-22T01:55:26;2.63;;;2.43;;
261;SDS011;114;48.260;10.988;2022-11-22T01:57:52;2.43;;;2.33;;
261;SDS011;114;48.260;10.988;2022-11-22T02:00:17;2.60;;;2.40;;
261;SDS011;114;48.260;10.988;2022-11-22T02:02:44;4.90;;;2.30;;
261;SDS011;114;48.260;10.988;2022-11-22T02:05:15;3.00;;;2.50;;
261;SDS011;114;48.260;10.988;2022-11-22T02:10:26;4.40;;;2.47;;
261;SDS011;114;48.260;10.988;2022-11-22T02:12:54;2.57;;;2.30;;
261;SDS011;114;48.260;10.988;2022-11-22T02:15:23;2.33;;;2.23;;
261;SDS011;114;48.260;10.988;2022-11-22T02:17:49;2.60;;;2.50;;
261;SDS011;114;48.260;10.988;2022-11-22T02:20:15;2.50;;;2.40;;
261;SDS011;114;48.260;10.988;2022-11-22T02:28:12;4.00;;;2.63;;
261;SDS011;114;48.260;10.988;2022-11-22T02:30:38;3.07;;;2.30;;
261;SDS011;114;48.260;10.988;2022-11-22T02:33:05;2.70;;;2.50;;
261;SDS011;114;48.260;10.988;2022-11-22T02:35:31;2.20;;;2.10;;
261;SDS011;114;48.260;10.988;2022-11-22T02:37:58;5.73;;;2.47;;
261;SDS011;114;48.260;10.988;2022-11-22T02:40:33;2.20;;;2.10;;
261;SDS011;114;48.260;10.988;2022-11-22T02:43:09;3.10;;;2.33;;
261;SDS011;114;48.260;10.988;2022-11-22T02:45:39;3.70;;;2.10;;
261;SDS011;114;48.260;10.988;2022-11-22T02:48:06;2.00;;;1.80;;
261;SDS011;114;48.260;10.988;2022-11-22T02:50:34;4.30;;;2.23;;
261;SDS011;114;48.260;10.988;2022-11-22T02:53:00;2.27;;;2.07;;
261;SDS011;114;48.260;10.988;2022-11-22T02:55:26;2.67;;;2.47;;
261;SDS011;114;48.260;10.988;2022-11-22T02:57:53;2.37;;;2.17;;
261;SDS011;114;48.260;10.988;2022-11-22T03:00:21;1.80;;;1.70;;
261;SDS011;114;48.260;10.988;2022-11-22T03:02:46;5.57;;;1.83;;
261;SDS011;114;48.260;10.988;2022-11-22T03:05:12;1.87;;;1.80;;
261;SDS011;114;48.260;10.988;2022-11-22T03:07:38;5.63;;;2.07;;
261;SDS011;114;48.260;10.988;2022-11-22T03:10:04;1.93;;;1.17;;
261;SDS011;114;48.260;10.988;2022-11-22T03:12:30;1.93;;;1.30;;
261;SDS011;114;48.260;10.988;2022-11-22T03:14:55;0.97;;;0.97;;
261;SDS011;114;48.260;10.988;2022-11-22T03:17:21;4.30;;;0.80;;
261;SDS011;114;48.260;10.988;2022-11-22T03:19:47;2.90;;;1.30;;
261;SDS011;114;48.260;10.988;2022-11-22T03:22:12;1.37;;;1.10;;
261;SDS011;114;48.260;10.988;2022-11-22T03:24:38;1.30;;;1.07;;
261;SDS011;114;48.260;10.988;2022-11-22T03:27:05;2.23;;;1.67;;
261;SDS011;114;48.260;10.988;2022-11-22T03:29:30;1.60;;;1.40;;
261;SDS011;114;48.260;10.988;2022-11-22T03:31:56;1.50;;;1.40;;
261;SDS011;114;48.260;10.988;2022-11-22T03:34:22;1.83;;;1.73;;
261;SDS011;114;48.260;10.988;2022-11-22T03:36:48;1.30;;;1.30;;
261;SDS011;114;48.260;10.988;2022-11-22T03:39:13;4.40;;;1.50;;
261;SDS011;114;48.260;10.988;2022-11-22T03:41:39;1.43;;;1.20;;
261;SDS011;114;48.260;10.988;2022-11-22T03:44:05;1.43;;;1.20;;
261;SDS011;114;48.260;10.988;2022-11-22T03:46:30;1.07;;;0.83;;
261;SDS011;114;48.260;10.988;2022-11-22T03:48:56;6.20;;;1.10;;
261;SDS011;114;48.260;10.988;2022-11-22T03:51:22;0.73;;;0.73;;
261;SDS011;114;48.260;10.988;2022-11-22T03:53:47;7.03;;;1.60;;
261;SDS011;114;48.260;10.988;2022-11-22T03:56:13;0.90;;;0.90;;
261;SDS011;114;48.260;10.988;2022-11-22T03:58:40;2.43;;;1.17;;
261;SDS011;114;48.260;10.988;2022-11-22T04:01:06;2.47;;;0.73;;
261;SDS011;114;48.260;10.988;2022-11-22T04:03:32;2.50;;;1.20;;
261;SDS011;114;48.260;10.988;2022-11-22T04:05:58;2.40;;;1.87;;
261;SDS011;114;48.260;10.988;2022-11-22T04:08:25;2.27;;;1.10;;
261;SDS011;114;48.260;10.988;2022-11-22T04:10:52;1.00;;;0.80;;
261;SDS011;114;48.260;10.988;2022-11-22T04:13:19;1.50;;;0.90;;
261;SDS011;114;48.260;10.988;2022-11-22T04:15:45;3.10;;;0.97;;
261;SDS011;114;48.260;10.988;2022-11-22T04:18:11;1.00;;;0.90;;
261;SDS011;114;48.260;10.988;2022-11-22T04:20:39;3.37;;;1.20;;
261;SDS011;114;48.260;10.988;2022-11-22T04:23:24;1.30;;;1.20;;
261;SDS011;114;48.260;10.988;2022-11-22T04:25:52;2.20;;;1.30;;
261;SDS011;114;48.260;10.988;2022-11-22T04:28:20;2.13;;;1.37;;
261;SDS011;114;48.260;10.988;2022-11-22T04:30:48;2.50;;;2.07;;
261;SDS011;114;48.260;10.988;2022-11-22T04:33:46;2.23;;;1.30;;
261;SDS011;114;48.260;10.988;2022-11-22T04:36:11;1.53;;;1.43;;
261;SDS011;114;48.260;10.988;2022-11-22T04:38:37;4.50;;;1.50;;
261;SDS011;114;48.260;10.988;2022-11-22T04:41:03;1.70;;;1.40;;
261;SDS011;114;48.260;10.988;2022-11-22T04:43:28;1.87;;;1.47;;
261;SDS011;114;48.260;10.988;2022-11-22T04:46:14;2.90;;;1.47;;
261;SDS011;114;48.260;10.988;2022-11-22T04:48:40;2.70;;;1.83;;
261;SDS011;114;48.260;10.988;2022-11-22T04:51:06;2.00;;;1.80;;
261;SDS011;114;48.260;10.988;2022-11-22T04:53:53;5.13;;;1.80;;
261;SDS011;114;48.260;10.988;2022-11-22T04:56:19;3.33;;;1.77;;
261;SDS011;114;48.260;10.988;2022-11-22T04:58:45;3.93;;;1.90;;
261;SDS011;114;48.260;10.988;2022-11-22T05:01:11;2.60;;;1.90;;
261;SDS011;114;48.260;10.988;2022-11-22T05:03:37;2.60;;;1.80;;
261;SDS011;114;48.260;10.988;2022-11-22T05:06:03;2.10;;;2.00;;
261;SDS011;114;48.260;10.988;2022-11-22T05:08:30;2.57;;;2.37;;
261;SDS011;114;48.260;10.988;2022-11-22T05:10:56;2.83;;;2.17;;
261;SDS011;114;48.260;10.988;2022-11-22T05:13:24;4.13;;;2.20;;
261;SDS011;114;48.260;10.988;2022-11-22T05:15:55;2.47;;;2.20;;
261;SDS011;114;48.260;10.988;2022-11-22T05:18:22;2.93;;;2.77;;
261;SDS011;114;48.260;10.988;2022-11-22T05:20:48;3.57;;;2.17;;
261;SDS011;114;48.260;10.988;2022-11-22T05:23:16;2.83;;;2.63;;
261;SDS011;114;48.260;10.988;2022-11-22T05:26:01;6.70;;;2.87;;
261;SDS011;114;48.260;10.988;2022-11-22T05:28:30;2.20;;;2.10;;
261;SDS011;114;48.260;10.988;2022-11-22T05:30:58;4.80;;;3.63;;
261;SDS011;114;48.260;10.988;2022-11-22T05:33:24;4.30;;;3.20;;
261;SDS011;114;48.260;10.988;2022-11-22T05:35:50;4.60;;;4.03;;
261;SDS011;114;48.260;10.988;2022-11-22T05:38:15;3.43;;;3.20;;
261;SDS011;114;48.260;10.988;2022-11-22T05:40:41;4.87;;;4.47;;
261;SDS011;114;48.260;10.988;2022-11-22T05:43:07;5.50;;;4.60;;
261;SDS011;114;48.260;10.988;2022-11-22T05:45:33;4.53;;;4.00;;
261;SDS011;114;48.260;10.988;2022-11-22T05:47:58;7.43;;;4.90;;
261;SDS011;114;48.260;10.988;2022-11-22T05:50:24;7.37;;;3.80;;
261;SDS011;114;48.260;10.988;2022-11-22T05:52:50;6.57;;;4.10;;
261;SDS011;114;48.260;10.988;2022-11-22T05:55:17;4.57;;;4.23;;
261;SDS011;114;48.260;10.988;2022-11-22T05:57:42;4.77;;;4.03;;
261;SDS011;114;48.260;10.988;2022-11-22T06:00:08;5.97;;;3.90;;
261;SDS011;114;48.260;10.988;2022-11-22T06:02:34;4.50;;;4.10;;
261;SDS011;114;48.260;10.988;2022-11-22T06:05:00;5.03;;;4.53;;
261;SDS011;114;48.260;10.988;2022-11-22T06:07:25;5.50;;;5.00;;
261;SDS011;114;48.260;10.988;2022-11-22T06:09:51;6.47;;;5.87;;
261;SDS011;114;48.260;10.988;2022-11-22T06:12:18;8.60;;;6.57;;
261;SDS011;114;48.260;10.988;2022-11-22T06:14:44;7.47;;;5.83;;
261;SDS011;114;48.260;10.988;2022-11-22T06:17:10;7.53;;;6.83;;
261;SDS011;114;48.260;10.988;2022-11-22T06:19:35;6.90;;;6.17;;
261;SDS011;114;48.260;10.988;2022-11-22T06:22:01;10.67;;;6.77;;
261;SDS011;114;48.260;10.988;2022-11-22T06:24:27;8.60;;;5.50;;
261;SDS011;114;48.260;10.988;2022-11-22T06:26:52;6.13;;;5.57;;
261;SDS011;114;48.260;10.988;2022-11-22T06:29:18;5.63;;;5.23;;
261;SDS011;114;48.260;10.988;2022-11-22T06:31:44;5.80;;;5.20;;
261;SDS011;114;48.260;10.988;2022-11-22T06:34:12;6.10;;;5.43;;
261;SDS011;114;48.260;10.988;2022-11-22T06:36:38;5.27;;;4.83;;
261;SDS011;114;48.260;10.988;2022-11-22T06:39:04;7.20;;;6.00;;
261;SDS011;114;48.260;10.988;2022-11-22T06:41:31;8.07;;;5.87;;
261;SDS011;114;48.260;10.988;2022-11-22T06:44:06;6.70;;;6.10;;
261;SDS011;114;48.260;10.988;2022-11-22T06:46:34;5.77;;;5.27;;
261;SDS011;114;48.260;10.988;2022-11-22T06:49:00;5.20;;;4.77;;
261;SDS011;114;48.260;10.988;2022-11-22T06:51:27;7.50;;;6.23;;
261;SDS011;114;48.260;10.988;2022-11-22T06:53:56;9.63;;;6.53;;
261;SDS011;114;48.260;10.988;2022-11-22T06:56:31;8.37;;;5.90;;
261;SDS011;114;48.260;10.988;2022-11-22T06:59:01;7.17;;;5.80;;
261;SDS011;114;48.260;10.988;2022-11-22T07:01:29;6.60;;;6.00;;
261;SDS011;114;48.260;10.988;2022-11-22T07:03:55;7.50;;;6.20;;
261;SDS011;114;48.260;10.988;2022-11-22T07:06:24;10.07;;;7.83;;
261;SDS011;114;48.260;10.988;2022-11-22T07:08:51;6.97;;;5.80;;
261;SDS011;114;48.260;10.988;2022-11-22T07:11:18;14.13;;;9.93;;
261;SDS011;114;48.260;10.988;2022-11-22T07:13:45;10.30;;;8.40;;
261;SDS011;114;48.260;10.988;2022-11-22T07:16:13;20.37;;;11.77;;
261;SDS011;114;48.260;10.988;2022-11-22T07:18:40;9.60;;;7.57;;
261;SDS011;114;48.260;10.988;2022-11-22T07:21:09;7.30;;;6.60;;
261;SDS011;114;48.260;10.988;2022-11-22T07:23:37;7.80;;;6.10;;
261;SDS011;114;48.260;10.988;2022-11-22T07:26:03;7.20;;;5.80;;
261;SDS011;114;48.260;10.988;2022-11-22T07:28:29;8.50;;;5.90;;
261;SDS011;114;48.260;10.988;2022-11-22T07:30:58;8.50;;;6.43;;
261;SDS011;114;48.260;10.988;2022-11-22T07:33:26;11.03;;;6.53;;
261;SDS011;114;48.260;10.988;2022-11-22T07:35:52;8.13;;;6.10;;
261;SDS011;114;48.260;10.988;2022-11-22T07:38:20;5.97;;;5.47;;
261;SDS011;114;48.260;10.988;2022-11-22T07:40:46;10.47;;;6.10;;
261;SDS011;114;48.260;10.988;2022-11-22T07:43:11;6.30;;;5.70;;
261;SDS011;114;48.260;10.988;2022-11-22T07:45:37;4.87;;;4.47;;
261;SDS011;114;48.260;10.988;2022-11-22T07:48:03;6.47;;;5.77;;
261;SDS011;114;48.260;10.988;2022-11-22T07:50:28;13.10;;;6.17;;
261;SDS011;114;48.260;10.988;2022-11-22T07:52:55;8.73;;;7.20;;
261;SDS011;114;48.260;10.988;2022-11-22T07:55:24;8.63;;;6.07;;
261;SDS011;114;48.260;10.988;2022-11-22T07:57:54;15.20;;;6.47;;
261;SDS011;114;48.260;10.988;2022-11-22T08:00:23;10.63;;;5.40;;
261;SDS011;114;48.260;10.988;2022-11-22T08:02:49;6.33;;;5.30;;
261;SDS011;114;48.260;10.988;2022-11-22T08:05:15;6.67;;;5.40;;
261;SDS011;114;48.260;10.988;2022-11-22T08:07:44;8.13;;;6.43;;
261;SDS011;114;48.260;10.988;2022-11-22T08:10:14;8.37;;;6.13;;
261;SDS011;114;48.260;10.988;2022-11-22T08:12:40;7.67;;;5.50;;
261;SDS011;114;48.260;10.988;2022-11-22T08:15:07;7.93;;;5.33;;
261;SDS011;114;48.260;10.988;2022-11-22T08:17:34;8.13;;;5.30;;
261;SDS011;114;48.260;10.988;2022-11-22T08:20:01;8.50;;;5.00;;
261;SDS011;114;48.260;10.988;2022-11-22T08:22:27;10.60;;;5.03;;
261;SDS011;114;48.260;10.988;2022-11-22T08:24:53;5.80;;;5.27;;
261;SDS011;114;48.260;10.988;2022-11-22T08:27:19;6.00;;;4.70;;
261;SDS011;114;48.260;10.988;2022-11-22T08:29:45;8.47;;;4.97;;
261;SDS011;114;48.260;10.988;2022-11-22T08:32:12;4.47;;;4.17;;
261;SDS011;114;48.260;10.988;2022-11-22T08:34:38;5.13;;;4.63;;
261;SDS011;114;48.260;10.988;2022-11-22T08:37:03;4.50;;;4.10;;
261;SDS011;114;48.260;10.988;2022-11-22T08:39:29;6.80;;;4.33;;
261;SDS011;114;48.260;10.988;2022-11-22T08:41:55;10.37;;;4.80;;
261;SDS011;114;48.260;10.988;2022-11-22T08:44:22;7.03;;;4.63;;
261;SDS011;114;48.260;10.988;2022-11-22T08:46:48;13.33;;;5.73;;
261;SDS011;114;48.260;10.988;2022-11-22T08:49:14;11.53;;;4.30;;
261;SDS011;114;48.260;10.988;2022-11-22T08:51:39;10.80;;;5.10;;
261;SDS011;114;48.260;10.988;2022-11-22T08:54:12;6.13;;;3.83;;
261;SDS011;114;48.260;10.988;2022-11-22T08:56:40;5.80;;;3.83;;
261;SDS011;114;48.260;10.988;2022-11-22T08:59:06;6.13;;;5.53;;
261;SDS011;114;48.260;10.988;2022-11-22T09:01:32;9.53;;;5.53;;
261;SDS011;114;48.260;10.988;2022-11-22T09:03:57;14.20;;;5.50;;
261;SDS011;114;48.260;10.988;2022-11-22T09:06:23;9.43;;;3.70;;
261;SDS011;114;48.260;10.988;2022-11-22T09:08:49;5.67;;;3.83;;
261;SDS011;114;48.260;10.988;2022-11-22T09:11:16;6.30;;;3.33;;
261;SDS011;114;48.260;10.988;2022-11-22T09:13:43;6.57;;;3.50;;
261;SDS011;114;48.260;10.988;2022-11-22T09:16:12;7.47;;;4.00;;
261;SDS011;114;48.260;10.988;2022-11-22T09:18:39;10.57;;;5.10;;
261;SDS011;114;48.260;10.988;2022-11-22T09:21:10;4.90;;;3.57;;
261;SDS011;114;48.260;10.988;2022-11-22T09:23:45;9.73;;;3.13;;
261;SDS011;114;48.260;10.988;2022-11-22T09:26:15;5.60;;;3.33;;
261;SDS011;114;48.260;10.988;2022-11-22T09:28:42;9.93;;;4.03;;
261;SDS011;114;48.260;10.988;2022-11-22T09:31:11;6.93;;;2.93;;
261;SDS011;114;48.260;10.988;2022-11-22T09:33:39;8.80;;;3.67;;
261;SDS011;114;48.260;10.988;2022-11-22T09:36:07;13.43;;;5.23;;
261;SDS011;114;48.260;10.988;2022-11-22T09:38:35;11.03;;;3.20;;
261;SDS011;114;48.260;10.988;2022-11-22T09:41:17;5.83;;;4.60;;
261;SDS011;114;48.260;10.988;2022-11-22T09:44:03;5.73;;;3.00;;
261;SDS011;114;48.260;10.988;2022-11-22T09:49:28;4.80;;;2.10;;
261;SDS011;114;48.260;10.988;2022-11-22T09:52:07;4.47;;;2.27;;
261;SDS011;114;48.260;10.988;2022-11-22T09:57:22;6.50;;;2.67;;
261;SDS011;114;48.260;10.988;2022-11-22T10:00:35;5.13;;;2.90;;
261;SDS011;114;48.260;10.988;2022-11-22T10:02:49;9.77;;;3.07;;
261;SDS011;114;48.260;10.988;2022-11-22T10:05:23;8.07;;;3.63;;
261;SDS011;114;48.260;10.988;2022-11-22T10:08:03;15.67;;;6.37;;
261;SDS011;114;48.260;10.988;2022-11-22T10:10:43;13.60;;;5.30;;
261;SDS011;114;48.260;10.988;2022-11-22T10:13:18;8.20;;;3.87;;
261;SDS011;114;48.260;10.988;2022-11-22T10:16:37;6.57;;;3.07;;
261;SDS011;114;48.260;10.988;2022-11-22T10:19:10;7.20;;;3.00;;
261;SDS011;114;48.260;10.988;2022-11-22T10:21:41;5.10;;;3.27;;
261;SDS011;114;48.260;10.988;2022-11-22T10:24:14;12.00;;;2.97;;
261;SDS011;114;48.260;10.988;2022-11-22T10:26:42;12.23;;;3.60;;
261;SDS011;114;48.260;10.988;2022-11-22T10:31:51;6.20;;;4.17;;
261;SDS011;114;48.260;10.988;2022-11-22T10:45:05;25.37;;;4.50;;
261;SDS011;114;48.260;10.988;2022-11-22T10:47:40;9.47;;;3.53;;
261;SDS011;114;48.260;10.988;2022-11-22T10:50:21;11.47;;;4.00;;
261;SDS011;114;48.260;10.988;2022-11-22T10:53:22;12.00;;;3.50;;
261;SDS011;114;48.260;10.988;2022-11-22T10:56:20;10.10;;;4.50;;
261;SDS011;114;48.260;10.988;2022-11-22T10:59:40;8.60;;;4.30;;
261;SDS011;114;48.260;10.988;2022-11-22T11:01:52;5.37;;;4.10;;
261;SDS011;114;48.260;10.988;2022-11-22T11:04:38;13.30;;;5.23;;
261;SDS011;114;48.260;10.988;2022-11-22T11:07:10;7.07;;;3.97;;
261;SDS011;114;48.260;10.988;2022-11-22T11:09:47;7.67;;;4.07;;
261;SDS011;114;48.260;10.988;2022-11-22T11:17:45;8.67;;;3.57;;
261;SDS011;114;48.260;10.988;2022-11-22T11:20:37;5.67;;;2.53;;
261;SDS011;114;48.260;10.988;2022-11-22T11:23:07;5.50;;;2.77;;
261;SDS011;114;48.260;10.988;2022-11-22T11:25:40;6.47;;;2.87;;
261;SDS011;114;48.260;10.988;2022-11-22T11:30:46;11.37;;;2.10;;
261;SDS011;114;48.260;10.988;2022-11-22T11:33:16;6.20;;;2.63;;
261;SDS011;114;48.260;10.988;2022-11-22T11:35:49;12.40;;;3.20;;
261;SDS011;114;48.260;10.988;2022-11-22T11:38:26;5.27;;;2.50;;
261;SDS011;114;48.260;10.988;2022-11-22T11:43:50;7.33;;;2.10;;
261;SDS011;114;48.260;10.988;2022-11-22T11:46:19;4.23;;;1.83;;
261;SDS011;114;48.260;10.988;2022-11-22T11:49:09;6.27;;;1.93;;
261;SDS011;114;48.260;10.988;2022-11-22T11:54:39;5.67;;;1.53;;
261;SDS011;114;48.260;10.988;2022-11-22T11:57:10;5.37;;;2.27;;
261;SDS011;114;48.260;10.988;2022-11-22T11:59:42;9.97;;;1.87;;
261;SDS011;114;48.260;10.988;2022-11-22T12:02:29;14.37;;;3.13;;
261;SDS011;114;48.260;10.988;2022-11-22T12:05:06;12.70;;;3.03;;
261;SDS011;114;48.260;10.988;2022-11-22T12:07:39;7.50;;;2.30;;
261;SDS011;114;48.260;10.988;2022-11-22T12:24:36;8.90;;;2.93;;
261;SDS011;114;48.260;10.988;2022-11-22T12:29:38;6.67;;;2.67;;
261;SDS011;114;48.260;10.988;2022-11-22T12:32:06;6.40;;;1.60;;
261;SDS011;114;48.260;10.988;2022-11-22T12:35:04;6.00;;;1.50;;
261;SDS011;114;48.260;10.988;2022-11-22T12:37:39;3.50;;;1.97;;
261;SDS011;114;48.260;10.988;2022-11-22T12:40:22;5.70;;;2.00;;
261;SDS011;114;48.260;10.988;2022-11-22T12:42:55;5.23;;;1.90;;
261;SDS011;114;48.260;10.988;2022-11-22T12:45:48;5.20;;;1.77;;
261;SDS011;114;48.260;10.988;2022-11-22T12:48:23;5.30;;;2.30;;
261;SDS011;114;48.260;10.988;2022-11-22T12:50:57;8.00;;;2.40;;
261;SDS011;114;48.260;10.988;2022-11-22T12:53:48;5.33;;;1.40;;
261;SDS011;114;48.260;10.988;2022-11-22T12:59:05;7.03;;;1.80;;
261;SDS011;114;48.260;10.988;2022-11-22T13:01:42;5.80;;;1.87;;
261;SDS011;114;48.260;10.988;2022-11-22T13:06:55;8.60;;;2.10;;
261;SDS011;114;48.260;10.988;2022-11-22T13:09:33;10.10;;;2.10;;
261;SDS011;114;48.260;10.988;2022-11-22T13:17:17;11.93;;;2.10;;
261;SDS011;114;48.260;10.988;2022-11-22T13:19:45;4.83;;;1.83;;
261;SDS011;114;48.260;10.988;2022-11-22T13:22:25;4.97;;;1.53;;
261;SDS011;114;48.260;10.988;2022-11-22T13:25:25;9.60;;;2.30;;
261;SDS011;114;48.260;10.988;2022-11-22T13:28:04;5.80;;;1.20;;
261;SDS011;114;48.260;10.988;2022-11-22T13:30:39;7.00;;;1.53;;
261;SDS011;114;48.260;10.988;2022-11-22T13:33:28;11.30;;;2.00;;
261;SDS011;114;48.260;10.988;2022-11-22T13:36:20;11.90;;;2.70;;
261;SDS011;114;48.260;10.988;2022-11-22T13:39:02;7.90;;;2.10;;
261;SDS011;114;48.260;10.988;2022-11-22T13:41:38;3.33;;;1.40;;
261;SDS011;114;48.260;10.988;2022-11-22T13:46:59;7.63;;;1.13;;
261;SDS011;114;48.260;10.988;2022-11-22T13:49:43;12.07;;;1.10;;
261;SDS011;114;48.260;10.988;2022-11-22T13:57:27;2.77;;;1.07;;
261;SDS011;114;48.260;10.988;2022-11-22T14:02:40;10.83;;;2.60;;
261;SDS011;114;48.260;10.988;2022-11-22T14:05:17;9.73;;;1.87;;
261;SDS011;114;48.260;10.988;2022-11-22T14:07:44;3.97;;;1.53;;
261;SDS011;114;48.260;10.988;2022-11-22T14:27:27;10.13;;;2.80;;
261;SDS011;114;48.260;10.988;2022-11-22T14:30:06;8.90;;;3.30;;
261;SDS011;114;48.260;10.988;2022-11-22T14:35:38;3.87;;;1.90;;
261;SDS011;114;48.260;10.988;2022-11-22T14:38:34;7.30;;;3.23;;
261;SDS011;114;48.260;10.988;2022-11-22T14:44:25;6.10;;;2.20;;
261;SDS011;114;48.260;10.988;2022-11-22T14:47:03;1.97;;;1.30;;
261;SDS011;114;48.260;10.988;2022-11-22T14:49:44;10.80;;;1.87;;
261;SDS011;114;48.260;10.988;2022-11-22T14:52:31;3.80;;;1.13;;
261;SDS011;114;48.260;10.988;2022-11-22T14:54:57;6.07;;;1.70;;
261;SDS011;114;48.260;10.988;2022-11-22T14:57:27;9.80;;;2.90;;
261;SDS011;114;48.260;10.988;2022-11-22T15:02:53;22.30;;;2.70;;
261;SDS011;114;48.260;10.988;2022-11-22T15:14:03;4.83;;;1.60;;
261;SDS011;114;48.260;10.988;2022-11-22T15:16:38;4.90;;;2.43;;
261;SDS011;114;48.260;10.988;2022-11-22T15:19:30;5.80;;;2.23;;
261;SDS011;114;48.260;10.988;2022-11-22T15:22:10;9.20;;;3.33;;
261;SDS011;114;48.260;10.988;2022-11-22T15:24:50;14.23;;;4.10;;
261;SDS011;114;48.260;10.988;2022-11-22T15:27:19;9.43;;;5.70;;
261;SDS011;114;48.260;10.988;2022-11-22T15:32:42;6.47;;;2.70;;
261;SDS011;114;48.260;10.988;2022-11-22T15:35:21;6.70;;;3.43;;
261;SDS011;114;48.260;10.988;2022-11-22T15:40:25;5.03;;;3.33;;
261;SDS011;114;48.260;10.988;2022-11-22T15:43:09;6.63;;;2.53;;
261;SDS011;114;48.260;10.988;2022-11-22T15:45:41;7.33;;;3.33;;
261;SDS011;114;48.260;10.988;2022-11-22T15:48:10;11.53;;;3.70;;
261;SDS011;114;48.260;10.988;2022-11-22T15:51:27;6.90;;;2.67;;
261;SDS011;114;48.260;10.988;2022-11-22T15:53:30;2.27;;;1.70;;
261;SDS011;114;48.260;10.988;2022-11-22T15:56:31;3.67;;;2.60;;
261;SDS011;114;48.260;10.988;2022-11-22T15:58:52;8.00;;;2.20;;
261;SDS011;114;48.260;10.988;2022-11-22T16:01:20;6.13;;;2.43;;
261;SDS011;114;48.260;10.988;2022-11-22T16:03:47;4.27;;;1.87;;
261;SDS011;114;48.260;10.988;2022-11-22T16:06:25;12.67;;;2.03;;
261;SDS011;114;48.260;10.988;2022-11-22T16:08:58;7.90;;;2.10;;
261;SDS011;114;48.260;10.988;2022-11-22T16:11:28;4.27;;;2.20;;
261;SDS011;114;48.260;10.988;2022-11-22T16:13:57;15.73;;;3.60;;
261;SDS011;114;48.260;10.988;2022-11-22T16:19:11;14.73;;;5.10;;
261;SDS011;114;48.260;10.988;2022-11-22T16:21:54;7.07;;;4.37;;
261;SDS011;114;48.260;10.988;2022-11-22T16:24:24;6.80;;;4.00;;
261;SDS011;114;48.260;10.988;2022-11-22T16:27:00;9.23;;;5.30;;
261;SDS011;114;48.260;10.988;2022-11-22T16:29:31;8.53;;;3.60;;
261;SDS011;114;48.260;10.988;2022-11-22T16:32:09;7.80;;;2.80;;
261;SDS011;114;48.260;10.988;2022-11-22T16:34:37;5.87;;;3.53;;
261;SDS011;114;48.260;10.988;2022-11-22T16:37:25;4.93;;;3.50;;
261;SDS011;114;48.260;10.988;2022-11-22T16:39:53;14.93;;;6.40;;
261;SDS011;114;48.260;10.988;2022-11-22T16:42:19;12.77;;;6.03;;
261;SDS011;114;48.260;10.988;2022-11-22T16:44:45;10.23;;;6.37;;
261;SDS011;114;48.260;10.988;2022-11-22T16:47:12;20.60;;;8.63;;
261;SDS011;114;48.260;10.988;2022-11-22T16:49:41;10.70;;;7.77;;
261;SDS011;114;48.260;10.988;2022-11-22T16:52:10;14.77;;;5.30;;
261;SDS011;114;48.260;10.988;2022-11-22T16:54:37;9.60;;;6.37;;
261;SDS011;114;48.260;10.988;2022-11-22T16:57:19;18.63;;;6.13;;
261;SDS011;114;48.260;10.988;2022-11-22T16:59:45;9.13;;;4.43;;
261;SDS011;114;48.260;10.988;2022-11-22T17:02:14;5.13;;;3.20;;
261;SDS011;114;48.260;10.988;2022-11-22T17:04:43;10.17;;;3.37;;
261;SDS011;114;48.260;10.988;2022-11-22T17:07:12;5.90;;;3.63;;
261;SDS011;114;48.260;10.988;2022-11-22T17:09:39;9.10;;;4.30;;
261;SDS011;114;48.260;10.988;2022-11-22T17:12:15;4.90;;;3.53;;
261;SDS011;114;48.260;10.988;2022-11-22T17:14:47;14.30;;;6.40;;
261;SDS011;114;48.260;10.988;2022-11-22T17:17:15;11.67;;;7.20;;
261;SDS011;114;48.260;10.988;2022-11-22T17:19:44;14.43;;;8.00;;
261;SDS011;114;48.260;10.988;2022-11-22T17:22:13;8.70;;;5.00;;
261;SDS011;114;48.260;10.988;2022-11-22T17:24:41;9.67;;;4.57;;
261;SDS011;114;48.260;10.988;2022-11-22T17:27:13;6.87;;;4.03;;
261;SDS011;114;48.260;10.988;2022-11-22T17:29:39;5.80;;;3.33;;
261;SDS011;114;48.260;10.988;2022-11-22T17:32:05;5.33;;;3.83;;
261;SDS011;114;48.260;10.988;2022-11-22T17:34:34;6.87;;;4.10;;
261;SDS011;114;48.260;10.988;2022-11-22T17:36:59;6.13;;;3.47;;
261;SDS011;114;48.260;10.988;2022-11-22T17:39:26;2.97;;;2.73;;
261;SDS011;114;48.260;10.988;2022-11-22T17:41:52;6.93;;;3.10;;
261;SDS011;114;48.260;10.988;2022-11-22T17:44:18;4.50;;;2.70;;
261;SDS011;114;48.260;10.988;2022-11-22T17:46:43;9.53;;;2.80;;
261;SDS011;114;48.260;10.988;2022-11-22T17:49:11;4.47;;;2.60;;
261;SDS011;114;48.260;10.988;2022-11-22T17:51:36;4.07;;;2.37;;